createdAt,value
2019-04-21T00:00:32.700Z,95322.21
2019-04-21T00:03:08.848Z,95321.63
2019-04-21T00:05:53.243Z,95327.34
2019-04-21T00:08:35.361Z,95319.30
2019-04-21T00:11:01.425Z,95327.03
2019-04-21T00:13:22.600Z,95332.58
2019-04-21T00:15:40.660Z,95329.04
2019-04-21T00:18:10.426Z,95339.55
2019-04-21T00:20:45.896Z,95339.13
2019-04-21T00:23:25.366Z,95339.30
2019-04-21T00:25:52.895Z,95340.22
2019-04-21T00:28:39.328Z,95340.97
2019-04-21T00:31:01.902Z,95337.71
2019-04-21T00:33:18.439Z,95338.79
2019-04-21T00:35:51.097Z,95334.27
2019-04-21T00:38:32.687Z,95336.34
2019-04-21T00:41:09.298Z,95336.37
2019-04-21T00:43:29.455Z,95334.33
2019-04-21T00:45:55.539Z,95334.50
2019-04-21T00:48:37.876Z,95334.33
2019-04-21T00:51:29.073Z,95329.63
2019-04-21T00:54:00.966Z,95335.94
2019-04-21T00:56:21.854Z,95341.98
2019-04-21T00:58:58.171Z,95341.12
2019-04-21T01:01:19.896Z,95331.41
2019-04-21T01:03:57.718Z,95334.11
2019-04-21T01:06:25.050Z,95339.66
2019-04-21T01:08:55.445Z,95336.23
2019-04-21T01:11:28.115Z,95331.67
2019-04-21T01:14:02.403Z,95333.13
2019-04-21T01:16:27.255Z,95328.00
2019-04-21T01:18:55.019Z,95333.64
2019-04-21T01:21:13.586Z,95330.03
2019-04-21T01:23:35.787Z,95329.11
2019-04-21T01:26:18.011Z,95325.41
2019-04-21T01:28:49.498Z,95326.84
2019-04-21T01:31:22.913Z,95325.67
2019-04-21T01:33:59.194Z,95326.77
2019-04-21T01:36:26.090Z,95325.77
2019-04-21T01:39:02.146Z,95317.69
2019-04-21T01:41:31.475Z,95317.38
2019-04-21T01:43:55.584Z,95304.94
2019-04-21T01:46:25.755Z,95300.55
2019-04-21T01:48:54.144Z,95306.11
2019-04-21T01:51:23.548Z,95298.54
2019-04-21T01:54:08.840Z,95297.77
2019-04-21T01:56:49.775Z,95294.66
2019-04-21T01:59:06.036Z,95285.97
2019-04-21T02:01:45.819Z,95286.94
2019-04-21T02:04:24.008Z,95284.61
2019-04-21T02:06:55.431Z,95275.39
2019-04-21T02:09:15.493Z,95270.38
2019-04-21T02:11:52.896Z,95266.77
2019-04-21T02:14:25.539Z,95273.52
2019-04-21T02:16:48.262Z,95282.78
2019-04-21T02:19:21.563Z,95284.13
2019-04-21T02:21:45.130Z,95282.59
2019-04-21T02:24:31.200Z,95249.81
2019-04-21T02:26:55.676Z,95275.81
2019-04-21T02:29:31.151Z,95267.47
2019-04-21T02:34:32.317Z,95272.16
2019-04-21T02:37:17.206Z,95275.14
2019-04-21T02:42:01.844Z,95271.30
2019-04-21T02:44:39.368Z,95265.33
2019-04-21T02:46:54.603Z,95266.95
2019-04-21T02:49:45.283Z,95268.30
2019-04-21T02:52:13.486Z,95266.95
2019-04-21T02:54:48.314Z,95277.41
2019-04-21T02:57:12.705Z,95275.78
2019-04-21T02:59:42.453Z,95273.18
2019-04-21T03:02:34.887Z,95273.11
2019-04-21T03:07:52.123Z,95268.27
2019-04-21T03:10:22.270Z,95272.66
2019-04-21T03:12:45.718Z,95268.36
2019-04-21T03:17:49.847Z,95272.09
2019-04-21T03:20:19.442Z,95264.36
2019-04-21T03:22:49.067Z,95268.53
2019-04-21T03:25:26.964Z,95260.64
2019-04-21T03:37:45.256Z,95267.87
2019-04-21T03:40:22.154Z,95263.23
2019-04-21T03:50:27.872Z,95263.92
2019-04-21T03:53:00.783Z,95260.31
2019-04-21T03:58:20.606Z,95263.27
2019-04-21T04:06:07.980Z,95255.41
2019-04-21T04:08:44.806Z,95259.94
2019-04-21T04:16:05.753Z,95265.49
2019-04-21T04:23:40.210Z,95262.38
2019-04-21T04:26:07.399Z,95260.86
2019-04-21T04:28:46.009Z,95265.30
2019-04-21T04:31:15.351Z,95264.30
2019-04-21T04:33:53.415Z,95259.91
2019-04-21T04:36:10.826Z,95249.55
2019-04-21T04:38:56.385Z,95256.36
2019-04-21T04:41:33.443Z,95258.05
2019-04-21T04:43:44.539Z,95259.83
2019-04-21T04:46:22.314Z,95254.36
2019-04-21T04:48:45.254Z,95252.81
2019-04-21T04:51:30.652Z,95252.82
2019-04-21T04:54:06.271Z,95252.48
2019-04-21T04:56:26.120Z,95254.27
2019-04-21T05:03:52.393Z,95251.27
2019-04-21T05:09:03.504Z,95256.20
2019-04-21T05:11:44.096Z,95248.54
2019-04-21T05:14:03.051Z,95249.66
2019-04-21T05:16:36.747Z,95250.64
2019-04-21T05:19:04.103Z,95247.77
2019-04-21T05:21:30.276Z,95254.70
2019-04-21T05:23:48.517Z,95261.83
2019-04-21T05:26:09.977Z,95272.02
2019-04-21T05:28:42.303Z,95264.61
2019-04-21T05:31:38.784Z,95254.88
2019-04-21T05:34:13.321Z,95258.54
2019-04-21T05:36:44.786Z,95258.80
2019-04-21T05:39:14.732Z,95257.64
2019-04-21T05:41:41.019Z,95262.25
2019-04-21T05:44:31.180Z,95249.17
2019-04-21T05:46:59.365Z,95247.92
2019-04-21T05:49:25.278Z,95245.87
2019-04-21T05:52:05.454Z,95247.23
2019-04-21T05:54:48.300Z,95251.80
2019-04-21T05:57:05.823Z,95249.52
2019-04-21T05:59:40.011Z,95248.69
2019-04-21T06:02:18.831Z,95243.02
2019-04-21T06:05:02.636Z,95241.20
2019-04-21T06:07:18.963Z,95240.77
2019-04-21T06:09:48.904Z,95234.63
2019-04-21T06:12:08.427Z,95236.24
2019-04-21T06:14:45.019Z,95231.39
2019-04-21T06:17:19.796Z,95235.89
2019-04-21T06:22:17.810Z,95232.38
2019-04-21T06:24:54.726Z,95238.36
2019-04-21T06:27:15.093Z,95231.98
2019-04-21T06:29:46.630Z,95235.34
2019-04-21T06:35:07.289Z,95231.86
2019-04-21T06:40:01.912Z,95225.23
2019-04-21T06:42:18.417Z,95227.81
2019-04-21T06:49:50.788Z,95226.48
2019-04-21T06:52:43.519Z,95229.31
2019-04-21T06:54:57.190Z,95225.11
2019-04-21T06:57:21.816Z,95226.30
2019-04-21T06:59:54.371Z,95232.27
2019-04-21T07:04:54.792Z,95227.22
2019-04-21T07:07:21.773Z,95226.05
2019-04-21T07:09:57.526Z,95224.00
2019-04-21T07:12:26.290Z,95221.78
2019-04-21T07:14:59.022Z,95224.84
2019-04-21T07:17:28.198Z,95221.41
2019-04-21T07:20:02.151Z,95221.41
2019-04-21T07:22:35.375Z,95219.14
2019-04-21T07:25:03.337Z,95219.12
2019-04-21T07:27:29.179Z,95211.27
2019-04-21T07:30:06.261Z,95208.59
2019-04-21T07:32:47.869Z,95203.44
2019-04-21T07:35:03.678Z,95206.02
2019-04-21T07:37:32.920Z,95213.77
2019-04-21T07:40:03.803Z,95213.87
2019-04-21T07:42:24.362Z,95214.40
2019-04-21T07:44:53.459Z,95203.66
2019-04-21T07:47:36.318Z,95214.77
2019-04-21T07:50:07.513Z,95205.08
2019-04-21T07:52:39.579Z,95203.92
2019-04-21T07:55:20.026Z,95199.83
2019-04-21T07:57:36.754Z,95201.45
2019-04-21T08:00:22.666Z,95203.20
2019-04-21T08:02:46.086Z,95190.44
2019-04-21T08:05:14.631Z,95202.34
2019-04-21T08:10:10.507Z,95192.69
2019-04-21T08:12:40.777Z,95194.11
2019-04-21T08:17:41.432Z,95181.50
2019-04-21T08:20:13.917Z,95174.70
2019-04-21T08:22:51.745Z,95175.98
2019-04-21T08:25:19.355Z,95173.50
2019-04-21T08:27:55.534Z,95171.98
2019-04-21T08:30:26.224Z,95168.70
2019-04-21T08:33:02.476Z,95167.91
2019-04-21T08:37:50.861Z,95167.10
2019-04-21T08:42:57.764Z,95158.73
2019-04-21T08:45:30.774Z,95158.91
2019-04-21T08:48:00.439Z,95152.31
2019-04-21T08:50:27.947Z,95144.80
2019-04-21T08:53:04.016Z,95155.59
2019-04-21T08:55:51.028Z,95143.65
2019-04-21T08:58:22.656Z,95145.07
2019-04-21T09:00:56.362Z,95131.75
2019-04-21T09:03:35.463Z,95138.53
2019-04-21T09:06:16.942Z,95131.30
2019-04-21T09:08:42.259Z,95127.82
2019-04-21T09:11:08.180Z,95123.74
2019-04-21T09:13:38.400Z,95123.77
2019-04-21T09:16:08.483Z,95115.20
2019-04-21T09:18:32.589Z,95105.86
2019-04-21T09:21:14.772Z,95107.98
2019-04-21T09:23:39.142Z,95105.92
2019-04-21T09:26:14.426Z,95106.55
2019-04-21T09:28:36.975Z,95098.52
2019-04-21T09:30:57.784Z,95093.99
2019-04-21T09:33:34.551Z,95087.27
2019-04-21T09:36:01.206Z,95089.42
2019-04-21T09:38:32.867Z,95082.17
2019-04-21T09:40:57.879Z,95079.34
2019-04-21T09:43:34.288Z,95070.62
2019-04-21T09:45:57.213Z,95074.25
2019-04-21T09:48:26.678Z,95073.33
2019-04-21T09:50:57.436Z,95074.91
2019-04-21T09:53:32.991Z,95073.97
2019-04-21T09:56:01.035Z,95060.27
2019-04-21T09:58:34.752Z,95054.48
2019-04-21T10:01:09.812Z,95061.86
2019-04-21T10:03:39.705Z,95050.73
2019-04-21T10:05:58.737Z,95049.61
2019-04-21T10:08:27.495Z,95045.77
2019-04-21T10:10:56.972Z,95049.15
2019-04-21T10:13:25.791Z,95042.38
2019-04-21T10:16:03.090Z,95036.56
2019-04-21T10:18:31.828Z,95034.08
2019-04-21T10:21:01.232Z,95028.55
2019-04-21T10:23:30.038Z,95023.58
2019-04-21T10:25:58.802Z,95024.53
2019-04-21T10:28:28.765Z,95020.89
2019-04-21T10:30:58.564Z,95014.73
2019-04-21T10:33:28.266Z,95017.47
2019-04-21T10:35:57.203Z,95012.34
2019-04-21T10:38:30.400Z,95010.70
2019-04-21T10:40:57.130Z,95006.14
2019-04-21T10:43:27.369Z,95000.47
2019-04-21T10:45:57.072Z,94998.47
2019-04-21T10:48:25.821Z,94998.57
2019-04-21T10:50:54.911Z,94992.61
2019-04-21T10:53:25.247Z,94985.87
2019-04-21T10:56:03.140Z,94980.88
2019-04-21T10:58:28.855Z,94974.16
2019-04-21T11:01:02.226Z,94970.94
2019-04-21T11:03:33.228Z,94956.48
2019-04-21T11:06:06.588Z,94975.59
2019-04-21T11:08:41.506Z,94970.34
2019-04-21T11:11:07.865Z,94964.50
2019-04-21T11:13:36.987Z,94967.66
2019-04-21T11:16:05.753Z,94962.81
2019-04-21T11:18:35.769Z,94963.03
2019-04-21T11:21:04.974Z,94950.24
2019-04-21T11:23:33.677Z,94953.16
2019-04-21T11:26:02.380Z,94951.61
2019-04-21T11:28:31.257Z,94947.50
2019-04-21T11:31:00.577Z,94945.02
2019-04-21T11:33:29.581Z,94948.09
2019-04-21T11:35:59.362Z,94946.94
2019-04-21T11:38:35.520Z,94943.02
2019-04-21T11:41:03.562Z,94934.07
2019-04-21T11:43:32.909Z,94930.01
2019-04-21T11:46:02.567Z,94937.44
2019-04-21T11:48:32.545Z,94930.09
2019-04-21T11:51:01.415Z,94924.42
2019-04-21T11:53:30.753Z,94925.05
2019-04-21T11:56:00.784Z,94925.56
2019-04-21T11:58:29.932Z,94924.03
2019-04-21T12:01:00.352Z,94928.22
2019-04-21T12:03:29.489Z,94920.16
2019-04-21T12:05:59.435Z,94918.66
2019-04-21T12:08:36.467Z,94916.77
2019-04-21T12:10:59.725Z,94910.26
2019-04-21T12:13:29.922Z,94907.16
2019-04-21T12:15:59.087Z,94902.23
2019-04-21T12:18:29.722Z,94908.44
2019-04-21T12:20:58.180Z,94903.11
2019-04-21T12:23:27.033Z,94902.59
2019-04-21T12:25:56.996Z,94899.94
2019-04-21T12:28:26.068Z,94890.77
2019-04-21T12:30:55.936Z,94885.53
2019-04-21T12:33:43.636Z,94883.50
2019-04-21T12:36:13.840Z,94890.05
2019-04-21T12:38:48.862Z,94884.54
2019-04-21T12:41:13.075Z,94871.00
2019-04-21T12:43:42.583Z,94878.64
2019-04-21T12:46:11.947Z,94869.02
2019-04-21T12:48:42.090Z,94869.18
2019-04-21T12:51:12.278Z,94867.66
2019-04-21T12:53:41.663Z,94872.82
2019-04-21T12:56:11.806Z,94872.10
2019-04-21T12:58:41.559Z,94871.35
2019-04-21T13:01:10.490Z,94862.13
2019-04-21T13:03:39.766Z,94858.88
2019-04-21T13:06:09.754Z,94855.80
2019-04-21T13:08:50.959Z,94851.16
2019-04-21T13:11:10.180Z,94851.55
2019-04-21T13:13:39.987Z,94846.03
2019-04-21T13:16:09.605Z,94848.33
2019-04-21T13:18:39.569Z,94845.69
2019-04-21T13:21:08.300Z,94841.30
2019-04-21T13:23:37.076Z,94834.77
2019-04-21T13:26:06.689Z,94835.66
2019-04-21T13:28:37.573Z,94822.08
2019-04-21T13:31:06.630Z,94825.38
2019-04-21T13:33:35.336Z,94825.00
2019-04-21T13:36:04.939Z,94818.75
2019-04-21T13:38:42.514Z,94821.02
2019-04-21T13:41:24.110Z,94817.27
2019-04-21T13:43:41.304Z,94820.02
2019-04-21T13:46:10.313Z,94828.25
2019-04-21T13:48:40.348Z,94818.87
2019-04-21T13:51:09.241Z,94820.91
2019-04-21T13:53:38.004Z,94813.16
2019-04-21T13:56:06.948Z,94819.53
2019-04-21T13:58:35.656Z,94810.13
2019-04-21T14:01:05.635Z,94810.99
2019-04-21T14:03:35.470Z,94806.37
2019-04-21T14:06:04.589Z,94807.19
2019-04-21T14:08:33.594Z,94810.97
2019-04-21T14:11:02.435Z,94806.08
2019-04-21T14:13:32.262Z,94804.03
2019-04-21T14:16:02.135Z,94796.92
2019-04-21T14:18:31.013Z,94790.80
2019-04-21T14:21:00.885Z,94799.50
2019-04-21T14:23:37.692Z,94791.97
2019-04-21T14:26:01.455Z,94788.39
2019-04-21T14:28:30.388Z,94784.78
2019-04-21T14:30:59.044Z,94778.27
2019-04-21T14:33:27.925Z,94778.93
2019-04-21T14:35:56.896Z,94780.27
2019-04-21T14:38:26.809Z,94774.89
2019-04-21T14:40:56.571Z,94773.28
2019-04-21T14:43:25.971Z,94764.16
2019-04-21T14:46:02.964Z,94762.69
2019-04-21T14:48:50.802Z,94759.13
2019-04-21T14:51:33.111Z,94764.54
2019-04-21T14:54:03.727Z,94766.56
2019-04-21T14:56:33.449Z,94758.63
2019-04-21T14:59:04.142Z,94754.48
2019-04-21T15:01:33.734Z,94756.74
2019-04-21T15:04:03.861Z,94757.52
2019-04-21T15:06:33.708Z,94752.72
2019-04-21T15:09:03.080Z,94756.84
2019-04-21T15:11:31.965Z,94751.66
2019-04-21T15:14:01.936Z,94758.80
2019-04-21T15:16:31.172Z,94734.98
2019-04-21T15:18:59.934Z,94749.62
2019-04-21T15:21:29.136Z,94748.48
2019-04-21T15:23:58.223Z,94749.03
2019-04-21T15:26:28.332Z,94753.92
2019-04-21T15:28:57.162Z,94745.94
2019-04-21T15:31:30.683Z,94741.14
2019-04-21T15:33:57.206Z,94739.11
2019-04-21T15:36:27.259Z,94739.78
2019-04-21T15:38:56.387Z,94730.95
2019-04-21T15:41:25.061Z,94729.91
2019-04-21T15:43:54.377Z,94725.95
2019-04-21T15:46:23.068Z,94724.70
2019-04-21T15:48:52.935Z,94726.59
2019-04-21T15:51:21.993Z,94723.74
2019-04-21T15:53:51.985Z,94723.03
2019-04-21T15:56:28.880Z,94723.20
2019-04-21T15:59:08.487Z,94726.10
2019-04-21T16:01:39.006Z,94714.17
2019-04-21T16:04:08.127Z,94724.63
2019-04-21T16:06:37.822Z,94717.10
2019-04-21T16:09:14.213Z,94718.31
2019-04-21T16:11:39.850Z,94715.13
2019-04-21T16:14:10.159Z,94715.89
2019-04-21T16:16:39.311Z,94712.00
2019-04-21T16:19:08.266Z,94711.31
2019-04-21T16:21:41.019Z,94706.73
2019-04-21T16:24:08.792Z,94709.72
2019-04-21T16:26:38.403Z,94712.28
2019-04-21T16:29:07.456Z,94709.91
2019-04-21T16:31:36.415Z,94711.71
2019-04-21T16:34:05.189Z,94711.96
2019-04-21T16:36:33.921Z,94711.52
2019-04-21T16:39:02.556Z,94711.00
2019-04-21T16:41:32.073Z,94708.73
2019-04-21T16:44:01.007Z,94712.76
2019-04-21T16:46:29.706Z,94706.17
2019-04-21T16:48:59.910Z,94707.66
2019-04-21T16:51:28.753Z,94705.14
2019-04-21T16:53:59.862Z,94700.80
2019-04-21T16:56:31.110Z,94702.11
2019-04-21T16:59:10.527Z,94699.83
2019-04-21T17:01:40.676Z,94706.31
2019-04-21T17:04:10.772Z,94705.73
2019-04-21T17:06:40.817Z,94704.55
2019-04-21T17:09:10.666Z,94711.11
2019-04-21T17:11:41.941Z,94713.00
2019-04-21T17:14:30.060Z,94714.21
2019-04-21T17:17:04.056Z,94715.67
2019-04-21T17:19:18.029Z,94709.30
2019-04-21T17:21:41.664Z,94712.22
2019-04-21T17:24:10.614Z,94719.68
2019-04-21T17:26:42.531Z,94723.31
2019-04-21T17:29:10.446Z,94719.59
2019-04-21T17:31:41.416Z,94722.72
2019-04-21T17:34:16.159Z,94725.56
2019-04-21T17:36:41.150Z,94725.70
2019-04-21T17:39:11.163Z,94725.08
2019-04-21T17:41:49.526Z,94728.92
2019-04-21T17:44:10.698Z,94726.81
2019-04-21T17:46:46.549Z,94731.41
2019-04-21T17:49:10.857Z,94726.90
2019-04-21T17:52:01.141Z,94724.05
2019-04-21T17:54:35.756Z,94729.52
2019-04-21T17:57:24.548Z,94732.85
2019-04-21T18:00:09.748Z,94737.05
2019-04-21T18:02:24.711Z,94744.13
2019-04-21T18:05:01.036Z,94738.89
2019-04-21T18:07:27.560Z,94738.02
2019-04-21T18:10:00.873Z,94741.75
2019-04-21T18:12:25.017Z,94721.21
2019-04-21T18:14:54.143Z,94742.08
2019-04-21T18:17:11.995Z,94742.31
2019-04-21T18:19:43.630Z,94742.84
2019-04-21T18:22:34.256Z,94744.84
2019-04-21T18:25:06.678Z,94752.46
2019-04-21T18:27:32.420Z,94760.95
2019-04-21T18:30:04.471Z,94756.44
2019-04-21T18:32:37.565Z,94751.59
2019-04-21T18:35:14.119Z,94757.78
2019-04-21T18:38:05.738Z,94759.11
2019-04-21T18:40:31.890Z,94764.37
2019-04-21T18:43:38.907Z,94771.45
2019-04-21T18:46:09.395Z,94769.75
2019-04-21T18:48:16.229Z,94763.33
2019-04-21T18:50:57.525Z,94771.05
2019-04-21T18:53:35.263Z,94773.03
2019-04-21T18:55:58.285Z,94774.53
2019-04-21T18:58:22.677Z,94776.24
2019-04-21T19:00:53.069Z,94774.30
2019-04-21T19:03:30.674Z,94785.81
2019-04-21T19:06:01.062Z,94781.80
2019-04-21T19:08:38.836Z,94782.70
2019-04-21T19:11:14.858Z,94786.16
2019-04-21T19:14:15.398Z,94792.55
2019-04-21T19:16:38.191Z,94793.80
2019-04-21T19:19:23.706Z,94791.01
2019-04-21T19:21:24.495Z,94797.36
2019-04-21T19:24:13.539Z,94798.62
2019-04-21T19:26:42.469Z,94800.86
2019-04-21T19:29:03.627Z,94800.66
2019-04-21T19:31:32.267Z,94797.03
2019-04-21T19:33:55.416Z,94800.56
2019-04-21T19:36:15.221Z,94801.38
2019-04-21T19:38:57.417Z,94798.28
2019-04-21T19:41:28.050Z,94792.41
2019-04-21T19:44:03.596Z,94797.00
2019-04-21T19:46:33.356Z,94792.52
2019-04-21T19:49:15.204Z,94792.08
2019-04-21T19:51:30.999Z,94792.88
2019-04-21T19:53:56.342Z,94793.51
2019-04-21T19:56:16.667Z,94788.52
2019-04-21T19:58:47.420Z,94787.92
2019-04-21T20:01:17.261Z,94790.11
2019-04-21T20:03:49.857Z,94793.18
2019-04-21T20:06:38.030Z,94786.85
2019-04-21T20:09:09.665Z,94784.41
2019-04-21T20:11:33.559Z,94783.72
2019-04-21T20:14:40.532Z,94780.86
2019-04-21T20:16:37.515Z,94771.54
2019-04-21T20:18:56.659Z,94774.17
2019-04-21T20:21:20.772Z,94773.95
2019-04-21T20:23:49.546Z,94772.00
2019-04-21T20:26:23.130Z,94777.30
2019-04-21T20:29:00.054Z,94773.99
2019-04-21T20:31:36.731Z,94771.67
2019-04-21T20:34:11.265Z,94767.26
2019-04-21T20:36:45.797Z,94774.33
2019-04-21T20:38:57.927Z,94773.08
2019-04-21T20:41:35.520Z,94768.56
2019-04-21T20:44:12.056Z,94768.42
2019-04-21T20:46:40.910Z,94769.30
2019-04-21T20:49:04.627Z,94768.22
2019-04-21T20:51:37.585Z,94762.97
2019-04-21T20:54:07.380Z,94764.23
2019-04-21T20:56:42.013Z,94771.38
2019-04-21T20:59:11.935Z,94762.25
2019-04-21T21:01:54.948Z,94767.80
2019-04-21T21:04:07.672Z,94768.80
2019-04-21T21:06:40.968Z,94767.90
2019-04-21T21:09:10.332Z,94764.94
2019-04-21T21:11:53.497Z,94768.19
2019-04-21T21:14:15.995Z,94762.73
2019-04-21T21:16:47.611Z,94761.48
2019-04-21T21:21:40.473Z,94759.16
2019-04-21T21:24:13.433Z,94758.56
2019-04-21T21:26:52.368Z,94750.21
2019-04-21T21:29:11.612Z,94756.53
2019-04-21T21:31:50.739Z,94761.58
2019-04-21T21:34:25.989Z,94741.46
2019-04-21T21:36:51.138Z,94762.53
2019-04-21T21:39:15.712Z,94770.31
2019-04-21T21:41:36.807Z,94766.41
2019-04-21T21:44:08.776Z,94767.91
2019-04-21T21:46:47.035Z,94759.95
2019-04-21T21:49:19.053Z,94737.78
2019-04-21T21:51:43.514Z,94763.89
2019-04-21T21:54:04.772Z,94758.58
2019-04-21T21:56:34.322Z,94759.00
2019-04-21T21:59:10.569Z,94761.98
2019-04-21T22:01:39.874Z,94760.08
2019-04-21T22:04:10.947Z,94764.95
2019-04-21T22:06:42.020Z,94763.19
2019-04-21T22:09:10.322Z,94758.09
2019-04-21T22:11:42.207Z,94755.22
2019-04-21T22:14:13.271Z,94762.41
2019-04-21T22:16:51.751Z,94760.23
2019-04-21T22:19:29.620Z,94761.20
2019-04-21T22:21:58.075Z,94768.88
2019-04-21T22:24:26.924Z,94766.21
2019-04-21T22:26:42.979Z,94764.13
2019-04-21T22:29:11.902Z,94759.20
2019-04-21T22:31:41.578Z,94761.52
2019-04-21T22:34:14.065Z,94766.42
2019-04-21T22:36:52.063Z,94760.84
2019-04-21T22:39:28.504Z,94735.78
2019-04-21T22:41:46.677Z,94762.31
2019-04-21T22:44:19.370Z,94758.20
2019-04-21T22:46:59.964Z,94768.77
2019-04-21T22:49:21.450Z,94769.51
2019-04-21T22:51:51.971Z,94767.86
2019-04-21T22:54:26.936Z,94773.91
2019-04-21T22:56:59.277Z,94769.51
2019-04-21T22:59:24.123Z,94770.34
2019-04-21T23:01:53.683Z,94763.33
2019-04-21T23:04:25.424Z,94756.39
2019-04-21T23:06:57.953Z,94759.38
2019-04-21T23:09:22.961Z,94760.69
2019-04-21T23:11:54.721Z,94754.34
2019-04-21T23:14:22.025Z,94719.06
2019-04-21T23:16:54.233Z,94753.45
2019-04-21T23:19:35.610Z,94757.89
2019-04-21T23:22:14.138Z,94751.61
2019-04-21T23:24:45.691Z,94743.23
2019-04-21T23:27:07.936Z,94742.61
2019-04-21T23:29:52.744Z,94738.38
2019-04-21T23:32:12.379Z,94744.51
2019-04-21T23:34:26.868Z,94737.59
2019-04-21T23:37:02.328Z,94740.75
2019-04-21T23:39:30.097Z,94740.61
2019-04-21T23:41:57.293Z,94738.78
2019-04-21T23:44:25.978Z,94735.97
2019-04-21T23:47:00.780Z,94739.30
2019-04-21T23:49:38.387Z,94735.56
2019-04-21T23:52:02.467Z,94737.08
2019-04-21T23:54:27.243Z,94736.51
2019-04-21T23:56:56.085Z,94737.13
2019-04-21T23:59:24.926Z,94728.13
